Raymond, Canada
Current Conditions -  °F | °C
As of 3:00 AM on Wednesday 22 Oct 2014 (Local Time) from CYQL Reporting Station
Clear Clear  
Wind Chill: 50°   Ceiling: Unl
Heat Index: 50°   Visibility: 9mi
Dew Point: 32°   Wind: 23mph
Humidity: 50%   Direction: 260°W
Pressure: 29.82"   Gusts: 30mph
Location:  49.47°N, 112.66°W
Report Text: CYQL 220900Z AUTO 26020G26KT 9SM CLR 10/00 A2982 RMK SLP104 DENSITY ALT 3200FT
Loading
Personal Weather Stations






























Interactive Weather Map New forecast layout! Learn more

10-Day Weather Forecast

Advertisements
Track Severe Weather on mobile